sensor_id;sensor_type;location;lat;lon;timestamp;P1;durP1;ratioP1;P2;durP2;ratioP2
75847;SDS011;65750;47.540;19.090;2023-04-01T00:01:13;5.23;;;1.10;;
75847;SDS011;65750;47.540;19.090;2023-04-01T00:03:42;3.05;;;1.02;;
75847;SDS011;65750;47.540;19.090;2023-04-01T00:06:09;2.75;;;1.10;;
75847;SDS011;65750;47.540;19.090;2023-04-01T00:08:38;3.53;;;1.20;;
75847;SDS011;65750;47.540;19.090;2023-04-01T00:11:06;2.75;;;1.10;;
75847;SDS011;65750;47.540;19.090;2023-04-01T00:13:33;3.60;;;1.10;;
75847;SDS011;65750;47.540;19.090;2023-04-01T00:16:01;4.07;;;1.10;;
75847;SDS011;65750;47.540;19.090;2023-04-01T00:18:29;2.97;;;1.10;;
75847;SDS011;65750;47.540;19.090;2023-04-01T00:20:56;2.35;;;1.10;;
75847;SDS011;65750;47.540;19.090;2023-04-01T00:23:23;2.08;;;1.10;;
75847;SDS011;65750;47.540;19.090;2023-04-01T00:25:51;2.70;;;1.13;;
75847;SDS011;65750;47.540;19.090;2023-04-01T00:28:19;3.78;;;1.37;;
75847;SDS011;65750;47.540;19.090;2023-04-01T00:30:47;2.42;;;1.00;;
75847;SDS011;65750;47.540;19.090;2023-04-01T00:33:14;2.90;;;1.30;;
75847;SDS011;65750;47.540;19.090;2023-04-01T00:35:42;3.17;;;1.10;;
75847;SDS011;65750;47.540;19.090;2023-04-01T00:38:10;3.67;;;1.30;;
75847;SDS011;65750;47.540;19.090;2023-04-01T00:40:38;2.53;;;1.15;;
75847;SDS011;65750;47.540;19.090;2023-04-01T00:43:09;3.22;;;1.12;;
75847;SDS011;65750;47.540;19.090;2023-04-01T00:45:40;2.25;;;0.90;;
75847;SDS011;65750;47.540;19.090;2023-04-01T00:48:10;3.42;;;1.30;;
75847;SDS011;65750;47.540;19.090;2023-04-01T00:50:41;3.00;;;1.27;;
75847;SDS011;65750;47.540;19.090;2023-04-01T00:53:11;2.40;;;1.10;;
75847;SDS011;65750;47.540;19.090;2023-04-01T00:55:39;3.12;;;1.02;;
75847;SDS011;65750;47.540;19.090;2023-04-01T00:58:11;2.22;;;1.05;;
75847;SDS011;65750;47.540;19.090;2023-04-01T01:00:42;2.55;;;1.10;;
75847;SDS011;65750;47.540;19.090;2023-04-01T01:03:10;3.60;;;1.10;;
75847;SDS011;65750;47.540;19.090;2023-04-01T01:05:42;3.17;;;1.10;;
75847;SDS011;65750;47.540;19.090;2023-04-01T01:08:18;3.28;;;1.10;;
75847;SDS011;65750;47.540;19.090;2023-04-01T01:10:52;2.42;;;1.20;;
75847;SDS011;65750;47.540;19.090;2023-04-01T01:13:21;3.00;;;1.00;;
75847;SDS011;65750;47.540;19.090;2023-04-01T01:15:53;4.90;;;1.30;;
75847;SDS011;65750;47.540;19.090;2023-04-01T01:18:25;2.87;;;1.10;;
75847;SDS011;65750;47.540;19.090;2023-04-01T01:21:04;2.30;;;1.08;;
75847;SDS011;65750;47.540;19.090;2023-04-01T01:23:52;2.65;;;1.00;;
75847;SDS011;65750;47.540;19.090;2023-04-01T01:26:33;2.95;;;1.15;;
75847;SDS011;65750;47.540;19.090;2023-04-01T01:29:15;2.50;;;0.97;;
75847;SDS011;65750;47.540;19.090;2023-04-01T01:32:13;2.83;;;1.10;;
75847;SDS011;65750;47.540;19.090;2023-04-01T01:34:47;2.30;;;1.02;;
75847;SDS011;65750;47.540;19.090;2023-04-01T01:37:20;2.85;;;1.05;;
75847;SDS011;65750;47.540;19.090;2023-04-01T01:39:51;3.05;;;1.23;;
75847;SDS011;65750;47.540;19.090;2023-04-01T01:42:20;2.37;;;1.10;;
75847;SDS011;65750;47.540;19.090;2023-04-01T01:44:51;2.45;;;1.08;;
75847;SDS011;65750;47.540;19.090;2023-04-01T01:47:19;2.25;;;1.00;;
75847;SDS011;65750;47.540;19.090;2023-04-01T01:49:47;2.83;;;1.20;;
75847;SDS011;65750;47.540;19.090;2023-04-01T01:52:16;2.87;;;1.10;;
75847;SDS011;65750;47.540;19.090;2023-04-01T01:54:49;2.83;;;1.13;;
75847;SDS011;65750;47.540;19.090;2023-04-01T01:57:17;2.35;;;1.10;;
75847;SDS011;65750;47.540;19.090;2023-04-01T01:59:48;3.17;;;0.98;;
75847;SDS011;65750;47.540;19.090;2023-04-01T02:02:19;2.65;;;1.20;;
75847;SDS011;65750;47.540;19.090;2023-04-01T02:04:47;2.47;;;1.10;;
75847;SDS011;65750;47.540;19.090;2023-04-01T02:07:16;2.50;;;1.13;;
75847;SDS011;65750;47.540;19.090;2023-04-01T02:09:45;2.78;;;1.20;;
75847;SDS011;65750;47.540;19.090;2023-04-01T02:12:14;2.12;;;1.10;;
75847;SDS011;65750;47.540;19.090;2023-04-01T02:14:43;2.10;;;1.00;;
75847;SDS011;65750;47.540;19.090;2023-04-01T02:17:13;2.17;;;0.80;;
75847;SDS011;65750;47.540;19.090;2023-04-01T02:19:44;2.30;;;1.17;;
75847;SDS011;65750;47.540;19.090;2023-04-01T02:22:16;2.75;;;1.08;;
75847;SDS011;65750;47.540;19.090;2023-04-01T02:24:45;2.03;;;0.95;;
75847;SDS011;65750;47.540;19.090;2023-04-01T02:27:14;2.17;;;1.02;;
75847;SDS011;65750;47.540;19.090;2023-04-01T02:29:42;2.28;;;1.00;;
75847;SDS011;65750;47.540;19.090;2023-04-01T02:32:09;2.27;;;1.00;;
75847;SDS011;65750;47.540;19.090;2023-04-01T02:34:37;2.00;;;0.90;;
75847;SDS011;65750;47.540;19.090;2023-04-01T02:37:04;2.30;;;0.95;;
75847;SDS011;65750;47.540;19.090;2023-04-01T02:39:31;2.37;;;1.10;;
75847;SDS011;65750;47.540;19.090;2023-04-01T02:41:58;2.30;;;1.10;;
75847;SDS011;65750;47.540;19.090;2023-04-01T02:44:27;2.63;;;0.90;;
75847;SDS011;65750;47.540;19.090;2023-04-01T02:46:54;2.20;;;1.12;;
75847;SDS011;65750;47.540;19.090;2023-04-01T02:49:22;1.80;;;0.90;;
75847;SDS011;65750;47.540;19.090;2023-04-01T02:51:49;2.20;;;1.10;;
75847;SDS011;65750;47.540;19.090;2023-04-01T02:54:17;1.77;;;0.90;;
75847;SDS011;65750;47.540;19.090;2023-04-01T02:56:44;1.77;;;0.97;;
75847;SDS011;65750;47.540;19.090;2023-04-01T02:59:11;1.92;;;0.90;;
75847;SDS011;65750;47.540;19.090;2023-04-01T03:01:40;1.73;;;0.85;;
75847;SDS011;65750;47.540;19.090;2023-04-01T03:04:07;2.55;;;1.08;;
75847;SDS011;65750;47.540;19.090;2023-04-01T03:06:35;2.62;;;0.98;;
75847;SDS011;65750;47.540;19.090;2023-04-01T03:09:02;1.80;;;0.70;;
75847;SDS011;65750;47.540;19.090;2023-04-01T03:11:30;2.15;;;0.85;;
75847;SDS011;65750;47.540;19.090;2023-04-01T03:13:57;2.40;;;1.08;;
75847;SDS011;65750;47.540;19.090;2023-04-01T03:16:24;2.50;;;1.00;;
75847;SDS011;65750;47.540;19.090;2023-04-01T03:18:52;2.00;;;0.88;;
75847;SDS011;65750;47.540;19.090;2023-04-01T03:21:22;2.20;;;0.90;;
75847;SDS011;65750;47.540;19.090;2023-04-01T03:23:50;2.00;;;0.90;;
75847;SDS011;65750;47.540;19.090;2023-04-01T03:26:18;2.00;;;0.80;;
75847;SDS011;65750;47.540;19.090;2023-04-01T03:28:46;1.80;;;0.80;;
75847;SDS011;65750;47.540;19.090;2023-04-01T03:31:14;1.80;;;0.75;;
75847;SDS011;65750;47.540;19.090;2023-04-01T03:33:42;2.70;;;1.00;;
75847;SDS011;65750;47.540;19.090;2023-04-01T03:36:10;1.87;;;0.80;;
75847;SDS011;65750;47.540;19.090;2023-04-01T03:38:38;2.22;;;1.00;;
75847;SDS011;65750;47.540;19.090;2023-04-01T03:41:06;2.10;;;0.88;;
75847;SDS011;65750;47.540;19.090;2023-04-01T03:43:33;1.85;;;0.88;;
75847;SDS011;65750;47.540;19.090;2023-04-01T03:46:01;2.10;;;0.90;;
75847;SDS011;65750;47.540;19.090;2023-04-01T03:48:28;2.00;;;1.00;;
75847;SDS011;65750;47.540;19.090;2023-04-01T03:50:55;2.45;;;0.85;;
75847;SDS011;65750;47.540;19.090;2023-04-01T03:53:24;2.10;;;0.90;;
75847;SDS011;65750;47.540;19.090;2023-04-01T03:55:52;2.53;;;1.00;;
75847;SDS011;65750;47.540;19.090;2023-04-01T03:58:20;2.90;;;1.07;;
75847;SDS011;65750;47.540;19.090;2023-04-01T04:00:47;1.80;;;0.80;;
75847;SDS011;65750;47.540;19.090;2023-04-01T04:03:15;2.00;;;0.90;;
75847;SDS011;65750;47.540;19.090;2023-04-01T04:05:46;2.00;;;1.00;;
75847;SDS011;65750;47.540;19.090;2023-04-01T04:08:14;1.77;;;0.70;;
75847;SDS011;65750;47.540;19.090;2023-04-01T04:10:43;1.80;;;0.70;;
75847;SDS011;65750;47.540;19.090;2023-04-01T04:13:10;1.87;;;0.88;;
75847;SDS011;65750;47.540;19.090;2023-04-01T04:15:38;1.60;;;0.70;;
75847;SDS011;65750;47.540;19.090;2023-04-01T04:18:05;2.33;;;0.90;;
75847;SDS011;65750;47.540;19.090;2023-04-01T04:20:33;1.80;;;0.73;;
75847;SDS011;65750;47.540;19.090;2023-04-01T04:23:00;2.17;;;0.70;;
75847;SDS011;65750;47.540;19.090;2023-04-01T04:25:28;1.62;;;0.80;;
75847;SDS011;65750;47.540;19.090;2023-04-01T04:27:56;1.62;;;0.80;;
75847;SDS011;65750;47.540;19.090;2023-04-01T04:30:24;1.70;;;0.80;;
75847;SDS011;65750;47.540;19.090;2023-04-01T04:32:51;1.80;;;0.80;;
75847;SDS011;65750;47.540;19.090;2023-04-01T04:35:18;1.97;;;0.90;;
75847;SDS011;65750;47.540;19.090;2023-04-01T04:37:45;1.80;;;0.80;;
75847;SDS011;65750;47.540;19.090;2023-04-01T04:40:12;2.00;;;0.60;;
75847;SDS011;65750;47.540;19.090;2023-04-01T04:42:40;2.30;;;1.00;;
75847;SDS011;65750;47.540;19.090;2023-04-01T04:45:09;2.12;;;0.88;;
75847;SDS011;65750;47.540;19.090;2023-04-01T04:47:39;1.70;;;0.60;;
75847;SDS011;65750;47.540;19.090;2023-04-01T04:50:07;1.92;;;0.80;;
75847;SDS011;65750;47.540;19.090;2023-04-01T04:52:36;1.73;;;0.70;;
75847;SDS011;65750;47.540;19.090;2023-04-01T04:55:04;1.62;;;0.73;;
75847;SDS011;65750;47.540;19.090;2023-04-01T04:57:32;1.85;;;0.80;;
75847;SDS011;65750;47.540;19.090;2023-04-01T04:59:59;1.93;;;0.77;;
75847;SDS011;65750;47.540;19.090;2023-04-01T05:02:28;1.67;;;0.82;;
75847;SDS011;65750;47.540;19.090;2023-04-01T05:04:56;1.90;;;1.05;;
75847;SDS011;65750;47.540;19.090;2023-04-01T05:07:23;1.40;;;0.60;;
75847;SDS011;65750;47.540;19.090;2023-04-01T05:09:51;2.03;;;0.80;;
75847;SDS011;65750;47.540;19.090;2023-04-01T05:12:18;1.63;;;0.73;;
75847;SDS011;65750;47.540;19.090;2023-04-01T05:14:46;1.87;;;0.80;;
75847;SDS011;65750;47.540;19.090;2023-04-01T05:17:14;2.55;;;0.88;;
75847;SDS011;65750;47.540;19.090;2023-04-01T05:19:42;1.50;;;0.73;;
75847;SDS011;65750;47.540;19.090;2023-04-01T05:22:09;1.73;;;0.70;;
75847;SDS011;65750;47.540;19.090;2023-04-01T05:24:37;1.77;;;0.90;;
75847;SDS011;65750;47.540;19.090;2023-04-01T05:27:04;1.87;;;0.80;;
75847;SDS011;65750;47.540;19.090;2023-04-01T05:29:31;1.60;;;0.75;;
75847;SDS011;65750;47.540;19.090;2023-04-01T05:32:01;1.42;;;0.70;;
75847;SDS011;65750;47.540;19.090;2023-04-01T05:34:28;2.30;;;0.70;;
75847;SDS011;65750;47.540;19.090;2023-04-01T05:36:57;2.43;;;0.80;;
75847;SDS011;65750;47.540;19.090;2023-04-01T05:39:24;1.58;;;0.70;;
75847;SDS011;65750;47.540;19.090;2023-04-01T05:41:51;1.73;;;0.95;;
75847;SDS011;65750;47.540;19.090;2023-04-01T05:44:18;1.90;;;0.80;;
75847;SDS011;65750;47.540;19.090;2023-04-01T05:46:51;1.50;;;0.70;;
75847;SDS011;65750;47.540;19.090;2023-04-01T05:49:19;1.60;;;0.77;;
75847;SDS011;65750;47.540;19.090;2023-04-01T05:51:46;1.98;;;0.88;;
75847;SDS011;65750;47.540;19.090;2023-04-01T05:54:15;1.52;;;0.70;;
75847;SDS011;65750;47.540;19.090;2023-04-01T05:56:43;1.52;;;0.70;;
75847;SDS011;65750;47.540;19.090;2023-04-01T05:59:10;1.60;;;0.80;;
75847;SDS011;65750;47.540;19.090;2023-04-01T06:01:38;1.60;;;0.70;;
75847;SDS011;65750;47.540;19.090;2023-04-01T06:04:06;2.28;;;0.80;;
75847;SDS011;65750;47.540;19.090;2023-04-01T06:06:33;2.03;;;0.90;;
75847;SDS011;65750;47.540;19.090;2023-04-01T06:09:07;2.35;;;0.80;;
75847;SDS011;65750;47.540;19.090;2023-04-01T06:11:41;1.65;;;0.70;;
75847;SDS011;65750;47.540;19.090;2023-04-01T06:14:17;2.07;;;1.03;;
75847;SDS011;65750;47.540;19.090;2023-04-01T06:16:52;1.60;;;0.88;;
75847;SDS011;65750;47.540;19.090;2023-04-01T06:19:29;2.25;;;0.80;;
75847;SDS011;65750;47.540;19.090;2023-04-01T06:22:21;2.90;;;1.05;;
75847;SDS011;65750;47.540;19.090;2023-04-01T06:25:02;2.62;;;0.90;;
75847;SDS011;65750;47.540;19.090;2023-04-01T06:27:45;3.87;;;0.90;;
75847;SDS011;65750;47.540;19.090;2023-04-01T06:30:24;1.65;;;0.70;;
75847;SDS011;65750;47.540;19.090;2023-04-01T06:33:01;2.30;;;0.80;;
75847;SDS011;65750;47.540;19.090;2023-04-01T06:38:55;3.95;;;0.70;;
75847;SDS011;65750;47.540;19.090;2023-04-01T06:41:38;3.17;;;0.93;;
75847;SDS011;65750;47.540;19.090;2023-04-01T06:44:32;5.37;;;1.00;;
75847;SDS011;65750;47.540;19.090;2023-04-01T06:47:22;3.00;;;0.82;;
75847;SDS011;65750;47.540;19.090;2023-04-01T06:50:03;2.65;;;1.00;;
75847;SDS011;65750;47.540;19.090;2023-04-01T06:52:42;2.87;;;1.05;;
75847;SDS011;65750;47.540;19.090;2023-04-01T06:55:19;4.60;;;1.00;;
75847;SDS011;65750;47.540;19.090;2023-04-01T06:57:55;9.35;;;1.25;;
75847;SDS011;65750;47.540;19.090;2023-04-01T07:00:27;2.35;;;0.80;;
75847;SDS011;65750;47.540;19.090;2023-04-01T07:02:59;2.72;;;1.00;;
75847;SDS011;65750;47.540;19.090;2023-04-01T07:05:32;3.50;;;0.90;;
75847;SDS011;65750;47.540;19.090;2023-04-01T07:08:02;2.00;;;0.90;;
75847;SDS011;65750;47.540;19.090;2023-04-01T07:10:33;3.22;;;1.00;;
75847;SDS011;65750;47.540;19.090;2023-04-01T07:13:10;2.95;;;1.10;;
75847;SDS011;65750;47.540;19.090;2023-04-01T07:15:42;5.65;;;1.08;;
75847;SDS011;65750;47.540;19.090;2023-04-01T07:18:14;3.47;;;0.98;;
75847;SDS011;65750;47.540;19.090;2023-04-01T07:20:43;3.53;;;0.80;;
75847;SDS011;65750;47.540;19.090;2023-04-01T07:23:13;4.53;;;1.20;;
75847;SDS011;65750;47.540;19.090;2023-04-01T07:25:45;3.30;;;0.80;;
75847;SDS011;65750;47.540;19.090;2023-04-01T07:28:15;4.15;;;0.85;;
75847;SDS011;65750;47.540;19.090;2023-04-01T07:30:47;2.80;;;0.80;;
75847;SDS011;65750;47.540;19.090;2023-04-01T07:33:20;4.77;;;0.90;;
75847;SDS011;65750;47.540;19.090;2023-04-01T07:35:52;3.40;;;1.10;;
75847;SDS011;65750;47.540;19.090;2023-04-01T07:38:26;4.28;;;0.93;;
75847;SDS011;65750;47.540;19.090;2023-04-01T07:41:00;3.60;;;0.80;;
75847;SDS011;65750;47.540;19.090;2023-04-01T07:43:42;5.20;;;0.90;;
75847;SDS011;65750;47.540;19.090;2023-04-01T07:46:21;2.67;;;0.87;;
75847;SDS011;65750;47.540;19.090;2023-04-01T07:48:57;4.05;;;1.00;;
75847;SDS011;65750;47.540;19.090;2023-04-01T07:51:29;4.12;;;1.20;;
75847;SDS011;65750;47.540;19.090;2023-04-01T07:54:00;4.15;;;1.25;;
75847;SDS011;65750;47.540;19.090;2023-04-01T07:56:32;3.25;;;0.80;;
75847;SDS011;65750;47.540;19.090;2023-04-01T07:59:04;1.60;;;0.60;;
75847;SDS011;65750;47.540;19.090;2023-04-01T08:01:39;3.00;;;0.98;;
75847;SDS011;65750;47.540;19.090;2023-04-01T08:04:18;2.12;;;0.80;;
75847;SDS011;65750;47.540;19.090;2023-04-01T08:06:51;4.28;;;0.98;;
75847;SDS011;65750;47.540;19.090;2023-04-01T08:09:25;5.22;;;1.00;;
75847;SDS011;65750;47.540;19.090;2023-04-01T08:12:04;4.00;;;0.93;;
75847;SDS011;65750;47.540;19.090;2023-04-01T09:50:12;9.50;;;2.07;;
75847;SDS011;65750;47.540;19.090;2023-04-01T09:52:45;5.15;;;2.03;;
75847;SDS011;65750;47.540;19.090;2023-04-01T10:13:58;4.53;;;1.40;;
75847;SDS011;65750;47.540;19.090;2023-04-01T10:17:00;6.68;;;1.50;;
75847;SDS011;65750;47.540;19.090;2023-04-01T10:26:09;9.45;;;3.33;;
75847;SDS011;65750;47.540;19.090;2023-04-01T10:29:12;10.23;;;4.10;;
75847;SDS011;65750;47.540;19.090;2023-04-01T10:41:30;6.40;;;2.30;;
75847;SDS011;65750;47.540;19.090;2023-04-01T10:44:17;4.00;;;2.00;;
75847;SDS011;65750;47.540;19.090;2023-04-01T10:47:13;5.55;;;1.80;;
75847;SDS011;65750;47.540;19.090;2023-04-01T10:53:02;6.87;;;1.55;;
75847;SDS011;65750;47.540;19.090;2023-04-01T11:02:22;4.32;;;1.35;;
75847;SDS011;65750;47.540;19.090;2023-04-01T11:08:52;3.85;;;1.30;;
75847;SDS011;65750;47.540;19.090;2023-04-01T11:14:37;2.62;;;1.12;;
75847;SDS011;65750;47.540;19.090;2023-04-01T11:20:20;2.57;;;1.10;;
75847;SDS011;65750;47.540;19.090;2023-04-01T11:23:18;2.35;;;1.20;;
75847;SDS011;65750;47.540;19.090;2023-04-01T11:26:08;4.87;;;1.20;;
75847;SDS011;65750;47.540;19.090;2023-04-01T11:28:49;2.92;;;1.00;;
75847;SDS011;65750;47.540;19.090;2023-04-01T11:31:29;3.35;;;1.00;;
75847;SDS011;65750;47.540;19.090;2023-04-01T11:34:07;4.07;;;1.07;;
75847;SDS011;65750;47.540;19.090;2023-04-01T11:36:44;3.00;;;1.10;;
75847;SDS011;65750;47.540;19.090;2023-04-01T11:39:20;3.10;;;1.00;;
75847;SDS011;65750;47.540;19.090;2023-04-01T11:41:56;7.10;;;1.60;;
75847;SDS011;65750;47.540;19.090;2023-04-01T11:44:31;8.10;;;1.23;;
75847;SDS011;65750;47.540;19.090;2023-04-01T11:47:12;8.63;;;1.30;;
75847;SDS011;65750;47.540;19.090;2023-04-01T11:49:49;9.27;;;1.83;;
75847;SDS011;65750;47.540;19.090;2023-04-01T11:52:26;9.48;;;2.17;;
75847;SDS011;65750;47.540;19.090;2023-04-01T11:55:06;9.10;;;3.97;;
75847;SDS011;65750;47.540;19.090;2023-04-01T11:57:43;10.18;;;2.83;;
75847;SDS011;65750;47.540;19.090;2023-04-01T12:00:25;6.70;;;2.70;;
75847;SDS011;65750;47.540;19.090;2023-04-01T12:03:17;10.43;;;2.20;;
75847;SDS011;65750;47.540;19.090;2023-04-01T12:05:54;10.70;;;2.60;;
75847;SDS011;65750;47.540;19.090;2023-04-01T12:08:29;8.68;;;2.20;;
75847;SDS011;65750;47.540;19.090;2023-04-01T12:11:04;5.85;;;1.83;;
75847;SDS011;65750;47.540;19.090;2023-04-01T12:13:37;5.30;;;1.90;;
75847;SDS011;65750;47.540;19.090;2023-04-01T12:16:15;7.87;;;1.77;;
75847;SDS011;65750;47.540;19.090;2023-04-01T12:18:57;6.15;;;1.52;;
75847;SDS011;65750;47.540;19.090;2023-04-01T12:21:28;9.10;;;1.45;;
75847;SDS011;65750;47.540;19.090;2023-04-01T12:27:12;5.93;;;1.27;;
75847;SDS011;65750;47.540;19.090;2023-04-01T12:29:59;4.72;;;1.00;;
75847;SDS011;65750;47.540;19.090;2023-04-01T12:32:49;4.68;;;1.10;;
75847;SDS011;65750;47.540;19.090;2023-04-01T12:35:26;4.87;;;1.10;;
75847;SDS011;65750;47.540;19.090;2023-04-01T12:38:02;2.25;;;1.00;;
75847;SDS011;65750;47.540;19.090;2023-04-01T12:40:47;5.13;;;1.10;;
75847;SDS011;65750;47.540;19.090;2023-04-01T12:43:26;11.52;;;1.23;;
75847;SDS011;65750;47.540;19.090;2023-04-01T12:46:03;9.07;;;1.08;;
75847;SDS011;65750;47.540;19.090;2023-04-01T12:51:31;4.05;;;1.00;;
75847;SDS011;65750;47.540;19.090;2023-04-01T12:54:22;8.13;;;0.90;;
75847;SDS011;65750;47.540;19.090;2023-04-01T12:57:15;7.47;;;0.82;;
75847;SDS011;65750;47.540;19.090;2023-04-01T12:59:52;2.65;;;0.80;;
75847;SDS011;65750;47.540;19.090;2023-04-01T13:02:28;10.27;;;1.20;;
75847;SDS011;65750;47.540;19.090;2023-04-01T13:08:09;4.17;;;1.17;;
75847;SDS011;65750;47.540;19.090;2023-04-01T13:10:51;10.80;;;1.40;;
75847;SDS011;65750;47.540;19.090;2023-04-01T13:16:19;5.82;;;1.00;;
75847;SDS011;65750;47.540;19.090;2023-04-01T13:18:53;9.77;;;1.05;;
75847;SDS011;65750;47.540;19.090;2023-04-01T13:21:26;4.30;;;1.00;;
75847;SDS011;65750;47.540;19.090;2023-04-01T13:24:04;8.60;;;1.40;;
75847;SDS011;65750;47.540;19.090;2023-04-01T13:26:37;17.92;;;1.77;;
75847;SDS011;65750;47.540;19.090;2023-04-01T13:29:11;24.75;;;2.15;;
75847;SDS011;65750;47.540;19.090;2023-04-01T13:31:48;25.17;;;2.03;;
75847;SDS011;65750;47.540;19.090;2023-04-01T13:34:24;24.33;;;2.83;;
75847;SDS011;65750;47.540;19.090;2023-04-01T13:37:02;16.42;;;1.60;;
75847;SDS011;65750;47.540;19.090;2023-04-01T13:39:45;17.10;;;1.67;;
75847;SDS011;65750;47.540;19.090;2023-04-01T13:42:21;14.87;;;1.73;;
75847;SDS011;65750;47.540;19.090;2023-04-01T13:44:53;18.27;;;2.00;;
75847;SDS011;65750;47.540;19.090;2023-04-01T13:50:25;72.53;;;5.82;;
75847;SDS011;65750;47.540;19.090;2023-04-01T13:53:16;89.68;;;6.75;;
75847;SDS011;65750;47.540;19.090;2023-04-01T13:56:05;68.28;;;4.75;;
75847;SDS011;65750;47.540;19.090;2023-04-01T13:58:52;58.53;;;4.97;;
75847;SDS011;65750;47.540;19.090;2023-04-01T14:01:29;47.90;;;3.67;;
75847;SDS011;65750;47.540;19.090;2023-04-01T14:06:58;34.97;;;3.30;;
75847;SDS011;65750;47.540;19.090;2023-04-01T14:09:31;21.83;;;2.58;;
75847;SDS011;65750;47.540;19.090;2023-04-01T14:12:11;19.52;;;2.20;;
75847;SDS011;65750;47.540;19.090;2023-04-01T14:14:48;51.70;;;17.80;;
75847;SDS011;65750;47.540;19.090;2023-04-01T14:17:29;53.97;;;15.32;;
75847;SDS011;65750;47.540;19.090;2023-04-01T14:20:07;39.65;;;11.77;;
75847;SDS011;65750;47.540;19.090;2023-04-01T14:28:54;23.70;;;6.37;;
75847;SDS011;65750;47.540;19.090;2023-04-01T14:31:29;20.20;;;5.05;;
75847;SDS011;65750;47.540;19.090;2023-04-01T14:34:05;19.65;;;4.05;;
75847;SDS011;65750;47.540;19.090;2023-04-01T14:37:01;13.90;;;3.97;;
75847;SDS011;65750;47.540;19.090;2023-04-01T14:39:56;12.43;;;3.92;;
75847;SDS011;65750;47.540;19.090;2023-04-01T14:42:37;10.50;;;3.20;;
75847;SDS011;65750;47.540;19.090;2023-04-01T14:45:20;21.55;;;3.30;;
75847;SDS011;65750;47.540;19.090;2023-04-01T14:47:58;14.40;;;2.95;;
75847;SDS011;65750;47.540;19.090;2023-04-01T14:50:27;19.87;;;2.90;;
75847;SDS011;65750;47.540;19.090;2023-04-01T14:52:59;8.85;;;2.40;;
75847;SDS011;65750;47.540;19.090;2023-04-01T14:55:44;9.07;;;2.43;;
75847;SDS011;65750;47.540;19.090;2023-04-01T14:58:16;11.15;;;2.25;;
75847;SDS011;65750;47.540;19.090;2023-04-01T15:00:48;8.55;;;2.28;;
75847;SDS011;65750;47.540;19.090;2023-04-01T15:03:22;6.15;;;1.80;;
75847;SDS011;65750;47.540;19.090;2023-04-01T15:05:55;8.68;;;1.98;;
75847;SDS011;65750;47.540;19.090;2023-04-01T15:08:38;6.13;;;2.00;;
75847;SDS011;65750;47.540;19.090;2023-04-01T15:17:13;12.80;;;1.77;;
75847;SDS011;65750;47.540;19.090;2023-04-01T15:19:53;7.25;;;2.05;;
75847;SDS011;65750;47.540;19.090;2023-04-01T15:22:32;6.60;;;1.43;;
75847;SDS011;65750;47.540;19.090;2023-04-01T15:25:19;6.45;;;1.60;;
75847;SDS011;65750;47.540;19.090;2023-04-01T15:27:55;6.10;;;1.42;;
75847;SDS011;65750;47.540;19.090;2023-04-01T15:30:30;6.15;;;1.35;;
75847;SDS011;65750;47.540;19.090;2023-04-01T15:33:13;7.35;;;1.62;;
75847;SDS011;65750;47.540;19.090;2023-04-01T15:35:46;3.03;;;1.20;;
75847;SDS011;65750;47.540;19.090;2023-04-01T15:38:21;4.40;;;1.10;;
75847;SDS011;65750;47.540;19.090;2023-04-01T15:40:53;5.47;;;1.30;;
75847;SDS011;65750;47.540;19.090;2023-04-01T15:43:27;8.85;;;1.52;;
75847;SDS011;65750;47.540;19.090;2023-04-01T15:46:09;7.95;;;1.77;;
75847;SDS011;65750;47.540;19.090;2023-04-01T15:48:47;5.93;;;1.47;;
75847;SDS011;65750;47.540;19.090;2023-04-01T15:51:25;8.05;;;1.33;;
75847;SDS011;65750;47.540;19.090;2023-04-01T15:54:06;5.10;;;1.27;;
75847;SDS011;65750;47.540;19.090;2023-04-01T15:57:01;11.63;;;1.98;;
75847;SDS011;65750;47.540;19.090;2023-04-01T15:59:41;4.47;;;1.20;;
75847;SDS011;65750;47.540;19.090;2023-04-01T16:02:18;6.50;;;1.57;;
75847;SDS011;65750;47.540;19.090;2023-04-01T16:04:52;5.20;;;1.30;;
75847;SDS011;65750;47.540;19.090;2023-04-01T16:07:30;9.57;;;1.12;;
75847;SDS011;65750;47.540;19.090;2023-04-01T16:10:16;4.95;;;1.23;;
75847;SDS011;65750;47.540;19.090;2023-04-01T16:12:52;7.25;;;1.40;;
75847;SDS011;65750;47.540;19.090;2023-04-01T16:15:26;3.87;;;1.10;;
75847;SDS011;65750;47.540;19.090;2023-04-01T16:18:00;10.10;;;1.67;;
75847;SDS011;65750;47.540;19.090;2023-04-01T16:20:45;3.78;;;1.00;;
75847;SDS011;65750;47.540;19.090;2023-04-01T16:23:18;4.95;;;1.45;;
75847;SDS011;65750;47.540;19.090;2023-04-01T16:25:52;8.20;;;1.10;;
75847;SDS011;65750;47.540;19.090;2023-04-01T16:28:22;5.67;;;1.20;;
75847;SDS011;65750;47.540;19.090;2023-04-01T16:30:55;4.65;;;0.90;;
75847;SDS011;65750;47.540;19.090;2023-04-01T16:33:28;5.12;;;1.25;;
75847;SDS011;65750;47.540;19.090;2023-04-01T16:36:07;4.97;;;1.00;;
75847;SDS011;65750;47.540;19.090;2023-04-01T16:38:40;5.43;;;1.30;;
75847;SDS011;65750;47.540;19.090;2023-04-01T16:41:15;11.83;;;1.10;;
75847;SDS011;65750;47.540;19.090;2023-04-01T16:43:44;4.57;;;0.80;;
75847;SDS011;65750;47.540;19.090;2023-04-01T16:46:19;16.15;;;1.98;;
75847;SDS011;65750;47.540;19.090;2023-04-01T16:48:59;9.45;;;1.30;;
75847;SDS011;65750;47.540;19.090;2023-04-01T16:51:34;7.85;;;1.25;;
75847;SDS011;65750;47.540;19.090;2023-04-01T16:54:05;5.73;;;1.10;;
75847;SDS011;65750;47.540;19.090;2023-04-01T16:56:39;9.07;;;1.37;;
75847;SDS011;65750;47.540;19.090;2023-04-01T16:59:13;5.95;;;1.20;;
75847;SDS011;65750;47.540;19.090;2023-04-01T17:01:48;5.20;;;1.00;;
75847;SDS011;65750;47.540;19.090;2023-04-01T17:04:21;6.32;;;1.20;;
75847;SDS011;65750;47.540;19.090;2023-04-01T17:06:56;6.87;;;1.20;;
75847;SDS011;65750;47.540;19.090;2023-04-01T17:09:32;7.35;;;1.10;;
75847;SDS011;65750;47.540;19.090;2023-04-01T17:12:07;3.80;;;1.20;;
75847;SDS011;65750;47.540;19.090;2023-04-01T17:14:41;2.10;;;1.17;;
75847;SDS011;65750;47.540;19.090;2023-04-01T17:17:18;5.45;;;1.20;;
75847;SDS011;65750;47.540;19.090;2023-04-01T17:19:56;4.53;;;1.30;;
75847;SDS011;65750;47.540;19.090;2023-04-01T17:22:52;4.22;;;1.30;;
75847;SDS011;65750;47.540;19.090;2023-04-01T17:25:36;2.90;;;1.40;;
75847;SDS011;65750;47.540;19.090;2023-04-01T17:28:12;2.97;;;1.20;;
75847;SDS011;65750;47.540;19.090;2023-04-01T17:30:48;3.22;;;1.40;;
75847;SDS011;65750;47.540;19.090;2023-04-01T17:33:33;2.00;;;0.97;;
75847;SDS011;65750;47.540;19.090;2023-04-01T17:36:27;4.40;;;1.67;;
75847;SDS011;65750;47.540;19.090;2023-04-01T17:39:04;2.83;;;1.30;;
75847;SDS011;65750;47.540;19.090;2023-04-01T17:41:42;3.33;;;1.40;;
75847;SDS011;65750;47.540;19.090;2023-04-01T17:44:25;3.50;;;1.50;;
75847;SDS011;65750;47.540;19.090;2023-04-01T17:47:03;2.90;;;1.30;;
75847;SDS011;65750;47.540;19.090;2023-04-01T17:49:42;5.62;;;1.33;;
75847;SDS011;65750;47.540;19.090;2023-04-01T17:52:15;4.90;;;1.40;;
75847;SDS011;65750;47.540;19.090;2023-04-01T17:54:52;4.65;;;1.10;;
75847;SDS011;65750;47.540;19.090;2023-04-01T17:57:32;3.67;;;1.33;;
75847;SDS011;65750;47.540;19.090;2023-04-01T18:00:18;3.73;;;1.23;;
75847;SDS011;65750;47.540;19.090;2023-04-01T18:02:51;3.10;;;1.10;;
75847;SDS011;65750;47.540;19.090;2023-04-01T18:05:38;4.75;;;1.48;;
75847;SDS011;65750;47.540;19.090;2023-04-01T18:08:15;6.22;;;1.40;;
75847;SDS011;65750;47.540;19.090;2023-04-01T18:10:54;5.68;;;1.30;;
75847;SDS011;65750;47.540;19.090;2023-04-01T18:13:33;9.17;;;1.60;;
75847;SDS011;65750;47.540;19.090;2023-04-01T18:16:14;13.90;;;3.17;;
75847;SDS011;65750;47.540;19.090;2023-04-01T18:18:53;16.77;;;3.40;;